Portada
METAR-TAF:

METAR-TAF

Aeroports :

Ha'il, Aràbia Saudita

latitud: 27-26N, longitud: 041-41E, altitud: 1015 m

Observació

L'informe es va fer fa 24 minuts, a les 16:00 UTC
Vent 12 kt del Nord
Temperatura 35°C
Humitat 23%
Pressió 1011 hPa
Visibilitat 10 km o més
sense núvols per sota de 1500 mi sense presència de cumulonimbus.

METAR: OEHL 171600Z 01012KT CAVOK 35/11 Q1011 NOSIG

Hora: 19:24 (16:24 UTC)

Pronòstic

L'informe es va fer fa 5 hores i 24 minuts, a les 11:00 UTC
Pronòstic vàlid del 17 a les 12 UTC al 18 a les 18 UTC
Vent 8 kt del Nord amb ràfegues de 18 kt
Visibilitat: 7000 m

TAF: OEHL 171100Z 1712/1818 36008G18KT 7000 NSC

Observacions i pronòstics meteorològics de més de 4000 aeroports (METAR i TAF).

Les estacions disponibles són els punts grocs i vermells al mapa.

Posi el ratolí al punt desitjat per veure el nom de l'estació.

Feu clic per veure les observacions i els pronòstics meteorològics.

Per canviar el mapa: feu clic els botons verds amb una creu de color negre per apropar; al botó verd amb un guió per allunyar la imatge; o en les fletxes verdes per a mapes adjacents.


METAR-TAF: